createdAt,value
2023-04-28T00:00:36.708Z,7.50
2023-04-28T00:01:38.589Z,7.52
2023-04-28T00:02:40.530Z,7.51
2023-04-28T00:03:42.754Z,7.51
2023-04-28T00:04:44.954Z,7.44
2023-04-28T00:05:47.995Z,7.45
2023-04-28T00:06:49.924Z,7.48
2023-04-28T00:07:51.888Z,7.49
2023-04-28T00:08:53.914Z,7.49
2023-04-28T00:09:57.226Z,7.49
2023-04-28T00:10:59.240Z,7.43
2023-04-28T00:12:02.040Z,7.38
2023-04-28T00:13:03.938Z,7.19
2023-04-28T00:14:06.395Z,7.18
2023-04-28T00:15:08.520Z,7.15
2023-04-28T00:16:10.431Z,7.17
2023-04-28T00:17:12.358Z,7.22
2023-04-28T00:18:14.283Z,7.25
2023-04-28T00:19:16.306Z,7.27
2023-04-28T00:20:18.353Z,7.29
2023-04-28T00:21:20.381Z,7.29
2023-04-28T00:22:22.414Z,7.25
2023-04-28T00:23:24.369Z,7.22
2023-04-28T00:24:26.303Z,7.22
2023-04-28T00:25:28.166Z,7.25
2023-04-28T00:26:30.017Z,7.21
2023-04-28T00:27:33.228Z,7.09
2023-04-28T00:28:35.272Z,6.92
2023-04-28T00:29:37.436Z,6.80
2023-04-28T00:30:39.391Z,6.72
2023-04-28T00:31:41.329Z,6.75
2023-04-28T00:32:43.255Z,6.77
2023-04-28T00:33:45.585Z,6.85
2023-04-28T00:34:47.497Z,6.90
2023-04-28T00:35:49.400Z,6.95
2023-04-28T00:36:51.321Z,7.00
2023-04-28T00:37:53.190Z,7.03
2023-04-28T00:38:55.068Z,7.05
2023-04-28T00:39:57.285Z,7.08
2023-04-28T00:40:59.172Z,7.11
2023-04-28T00:42:02.396Z,7.13
2023-04-28T00:43:04.917Z,7.15
2023-04-28T00:44:06.936Z,7.18
2023-04-28T00:45:09.123Z,7.15
2023-04-28T00:46:11.524Z,7.02
2023-04-28T00:47:13.896Z,7.00
2023-04-28T00:48:16.004Z,6.95
2023-04-28T00:49:17.899Z,6.97
2023-04-28T00:50:19.839Z,7.00
2023-04-28T00:51:21.919Z,7.03
2023-04-28T00:52:23.851Z,7.07
2023-04-28T00:53:25.848Z,7.10
2023-04-28T00:54:27.856Z,7.11
2023-04-28T00:55:32.201Z,7.13
2023-04-28T00:56:34.236Z,7.16
2023-04-28T00:57:36.562Z,7.19
2023-04-28T00:58:38.538Z,7.20
2023-04-28T00:59:40.530Z,7.22
2023-04-28T01:00:42.638Z,7.20
2023-04-28T01:01:44.627Z,7.15
2023-04-28T01:02:47.139Z,7.12
2023-04-28T01:03:49.358Z,7.09
2023-04-28T01:04:52.967Z,6.97
2023-04-28T01:05:54.971Z,6.96
2023-04-28T01:06:57.385Z,6.97
2023-04-28T01:07:59.342Z,6.88
2023-04-28T01:09:01.238Z,6.85
2023-04-28T01:10:03.417Z,6.88
2023-04-28T01:11:05.576Z,6.90
2023-04-28T01:12:07.562Z,6.92
2023-04-28T01:13:09.459Z,6.92
2023-04-28T01:14:11.325Z,6.90
2023-04-28T01:15:16.438Z,6.86
2023-04-28T01:16:18.462Z,6.84
2023-04-28T01:17:20.388Z,6.80
2023-04-28T01:18:23.155Z,6.81
2023-04-28T01:19:25.139Z,6.86
2023-04-28T01:20:27.050Z,6.87
2023-04-28T01:21:30.666Z,6.90
2023-04-28T01:22:32.638Z,6.84
2023-04-28T01:23:34.516Z,6.82
2023-04-28T01:24:36.534Z,6.81
2023-04-28T01:25:38.424Z,6.80
2023-04-28T01:26:40.461Z,6.83
2023-04-28T01:27:42.365Z,6.85
2023-04-28T01:28:44.290Z,6.87
2023-04-28T01:29:46.334Z,6.86
2023-04-28T01:30:48.222Z,6.87
2023-04-28T01:31:50.157Z,6.87
2023-04-28T01:32:52.169Z,6.88
2023-04-28T01:33:54.036Z,6.82
2023-04-28T01:34:55.918Z,6.81
2023-04-28T01:35:59.211Z,6.80
2023-04-28T01:37:01.505Z,6.82
2023-04-28T01:38:03.523Z,6.83
2023-04-28T01:39:05.742Z,6.81
2023-04-28T01:40:08.424Z,6.83
2023-04-28T01:41:10.317Z,6.86
2023-04-28T01:42:12.167Z,6.88
2023-04-28T01:43:14.125Z,6.91
2023-04-28T01:44:16.429Z,6.90
2023-04-28T01:45:18.298Z,6.91
2023-04-28T01:46:20.265Z,6.91
2023-04-28T01:47:22.233Z,6.92
2023-04-28T01:48:24.692Z,6.94
2023-04-28T01:49:26.554Z,6.93
2023-04-28T01:50:28.396Z,6.93
2023-04-28T01:51:30.317Z,6.95
2023-04-28T01:52:32.335Z,6.97
2023-04-28T01:53:34.437Z,6.99
2023-04-28T01:54:36.333Z,6.95
2023-04-28T01:55:38.566Z,6.95
2023-04-28T01:56:40.416Z,6.98
2023-04-28T01:57:42.540Z,6.94
2023-04-28T01:58:44.529Z,6.93
2023-04-28T01:59:46.460Z,6.91
2023-04-28T02:00:48.411Z,6.88
2023-04-28T02:01:50.333Z,6.83
2023-04-28T02:02:52.328Z,6.78
2023-04-28T02:03:55.762Z,6.81
2023-04-28T02:04:58.582Z,6.84
2023-04-28T02:06:00.633Z,6.86
2023-04-28T02:07:02.497Z,6.81
2023-04-28T02:08:04.530Z,6.77
2023-04-28T02:09:06.658Z,6.74
2023-04-28T02:10:08.952Z,6.78
2023-04-28T02:11:10.945Z,6.79
2023-04-28T02:12:12.880Z,6.81
2023-04-28T02:13:14.828Z,6.84
2023-04-28T02:14:17.071Z,6.72
2023-04-28T02:15:19.892Z,6.67
2023-04-28T02:16:21.842Z,6.72
2023-04-28T02:17:23.738Z,6.73
2023-04-28T02:18:25.577Z,6.74
2023-04-28T02:19:27.509Z,6.70
2023-04-28T02:20:30.785Z,6.65
2023-04-28T02:21:34.599Z,6.61
2023-04-28T02:22:36.763Z,6.63
2023-04-28T02:23:39.140Z,6.66
2023-04-28T02:24:40.965Z,6.71
2023-04-28T02:25:42.992Z,6.74
2023-04-28T02:26:44.913Z,6.77
2023-04-28T02:27:46.810Z,6.80
2023-04-28T02:28:49.425Z,6.82
2023-04-28T02:29:52.094Z,6.82
2023-04-28T02:30:53.987Z,6.78
2023-04-28T02:31:56.050Z,6.73
2023-04-28T02:32:57.949Z,6.61
2023-04-28T02:33:59.814Z,6.50
2023-04-28T02:35:01.712Z,6.51
2023-04-28T02:36:04.699Z,6.56
2023-04-28T02:37:06.705Z,6.59
2023-04-28T02:38:08.652Z,6.65
2023-04-28T02:39:11.035Z,6.69
2023-04-28T02:40:13.165Z,6.73
2023-04-28T02:41:15.705Z,6.53
2023-04-28T02:42:17.787Z,6.42
2023-04-28T02:43:19.795Z,6.37
2023-04-28T02:44:21.780Z,6.31
2023-04-28T02:45:23.719Z,6.35
2023-04-28T02:46:25.826Z,6.42
2023-04-28T02:47:27.854Z,6.41
2023-04-28T02:48:29.814Z,6.43
2023-04-28T02:49:31.957Z,6.46
2023-04-28T02:50:33.905Z,6.51
2023-04-28T02:51:35.974Z,6.53
2023-04-28T02:52:38.409Z,6.56
2023-04-28T02:53:40.273Z,6.61
2023-04-28T02:54:42.309Z,6.61
2023-04-28T02:55:44.258Z,6.58
2023-04-28T02:56:46.165Z,6.56
2023-04-28T02:57:48.110Z,6.56
2023-04-28T02:58:49.936Z,6.56
2023-04-28T02:59:51.842Z,6.56
2023-04-28T03:00:53.783Z,6.59
2023-04-28T03:01:55.802Z,6.65
2023-04-28T03:02:57.796Z,6.64
2023-04-28T03:04:00.654Z,6.65
2023-04-28T03:05:02.694Z,6.67
2023-04-28T03:06:04.773Z,6.61
2023-04-28T03:07:06.815Z,6.60
2023-04-28T03:08:08.746Z,6.64
2023-04-28T03:09:11.338Z,6.61
2023-04-28T03:10:13.259Z,6.59
2023-04-28T03:11:15.144Z,6.59
2023-04-28T03:12:17.025Z,6.61
2023-04-28T03:13:18.942Z,6.64
2023-04-28T03:14:20.895Z,6.66
2023-04-28T03:15:22.833Z,6.69
2023-04-28T03:16:24.733Z,6.71
2023-04-28T03:17:26.677Z,6.71
2023-04-28T03:18:28.727Z,6.69
2023-04-28T03:19:30.642Z,6.67
2023-04-28T03:20:32.500Z,6.57
2023-04-28T03:21:34.437Z,6.55
2023-04-28T03:22:36.714Z,6.58
2023-04-28T03:23:38.637Z,6.60
2023-04-28T03:24:40.556Z,6.64
2023-04-28T03:25:42.443Z,6.65
2023-04-28T03:26:44.510Z,6.65
2023-04-28T03:27:46.447Z,6.69
2023-04-28T03:28:48.450Z,6.72
2023-04-28T03:29:50.389Z,6.70
2023-04-28T03:30:52.369Z,6.64
2023-04-28T03:31:54.243Z,6.59
2023-04-28T03:32:56.303Z,6.58
2023-04-28T03:33:59.891Z,6.57
2023-04-28T03:35:01.984Z,6.54
2023-04-28T03:36:04.183Z,6.51
2023-04-28T03:37:06.127Z,6.51
2023-04-28T03:38:08.034Z,6.56
2023-04-28T03:39:10.616Z,6.58
2023-04-28T03:40:12.847Z,6.62
2023-04-28T03:41:14.901Z,6.58
2023-04-28T03:42:17.018Z,6.58
2023-04-28T03:43:18.886Z,6.61
2023-04-28T03:44:21.929Z,6.66
2023-04-28T03:45:23.950Z,6.70
2023-04-28T03:46:25.953Z,6.71
2023-04-28T03:47:28.616Z,6.73
2023-04-28T03:48:30.623Z,6.75
2023-04-28T03:49:32.614Z,6.72
2023-04-28T03:50:34.591Z,6.68
2023-04-28T03:51:36.530Z,6.66
2023-04-28T03:52:39.092Z,6.55
2023-04-28T03:53:40.970Z,6.54
2023-04-28T03:54:42.918Z,6.60
2023-04-28T03:55:44.930Z,6.66
2023-04-28T03:56:47.016Z,6.71
2023-04-28T03:57:48.950Z,6.73
2023-04-28T03:58:50.786Z,6.73
2023-04-28T03:59:52.721Z,6.72
2023-04-28T04:00:54.701Z,6.74
2023-04-28T04:01:56.797Z,6.66
2023-04-28T04:03:03.385Z,6.69
2023-04-28T04:04:05.976Z,6.73
2023-04-28T04:05:08.393Z,6.76
2023-04-28T04:06:10.614Z,6.76
2023-04-28T04:07:12.632Z,6.73
2023-04-28T04:08:15.062Z,6.71
2023-04-28T04:09:17.106Z,6.70
2023-04-28T04:10:19.091Z,6.66
2023-04-28T04:11:21.263Z,6.65
2023-04-28T04:12:23.190Z,6.65
2023-04-28T04:13:25.051Z,6.65
2023-04-28T04:14:27.006Z,6.69
2023-04-28T04:15:29.059Z,6.73
2023-04-28T04:16:31.117Z,6.75
2023-04-28T04:17:33.217Z,6.79
2023-04-28T04:18:35.254Z,6.82
2023-04-28T04:19:37.057Z,6.77
2023-04-28T04:20:38.935Z,6.77
2023-04-28T04:21:41.585Z,6.76
2023-04-28T04:22:43.529Z,6.77
2023-04-28T04:23:45.451Z,6.78
2023-04-28T04:24:47.303Z,6.61
2023-04-28T04:25:49.834Z,6.55
2023-04-28T04:26:51.750Z,6.61
2023-04-28T04:27:53.640Z,6.69
2023-04-28T04:28:55.525Z,6.74
2023-04-28T04:29:57.501Z,6.76
2023-04-28T04:30:59.624Z,6.74
2023-04-28T04:32:01.610Z,6.60
2023-04-28T04:33:03.564Z,6.59
2023-04-28T04:34:05.548Z,6.64
2023-04-28T04:35:07.661Z,6.63
2023-04-28T04:36:09.584Z,6.67
2023-04-28T04:37:11.471Z,6.72
2023-04-28T04:38:13.571Z,6.75
2023-04-28T04:39:15.995Z,6.76
2023-04-28T04:40:17.926Z,6.74
2023-04-28T04:41:23.056Z,6.75
2023-04-28T04:42:26.002Z,6.71
2023-04-28T04:43:28.301Z,6.68
2023-04-28T04:44:30.132Z,6.73
2023-04-28T04:45:32.184Z,6.76
2023-04-28T04:46:34.151Z,6.76
2023-04-28T04:47:36.208Z,6.80
2023-04-28T04:48:38.144Z,6.85
2023-04-28T04:49:40.028Z,6.91
2023-04-28T04:50:42.926Z,6.90
2023-04-28T04:51:44.889Z,6.92
2023-04-28T04:52:46.885Z,6.91
2023-04-28T04:53:48.969Z,6.90
2023-04-28T04:54:50.903Z,6.92
2023-04-28T04:55:52.853Z,6.97
2023-04-28T04:56:54.801Z,6.99
2023-04-28T04:57:56.825Z,6.99
2023-04-28T04:58:58.707Z,7.00
2023-04-28T05:00:00.635Z,7.01
2023-04-28T05:01:02.741Z,7.06
2023-04-28T05:02:04.670Z,7.10
2023-04-28T05:03:06.829Z,7.13
2023-04-28T05:04:09.159Z,7.14
2023-04-28T05:05:20.527Z,7.18
2023-04-28T05:06:23.691Z,7.21
2023-04-28T05:07:26.729Z,7.27
2023-04-28T05:08:28.954Z,7.31
2023-04-28T05:09:32.316Z,7.33
2023-04-28T05:10:34.247Z,7.35
2023-04-28T05:11:36.218Z,7.40
2023-04-28T05:12:39.306Z,7.42
2023-04-28T05:13:41.206Z,7.39
2023-04-28T05:14:43.222Z,7.33
2023-04-28T05:15:45.145Z,7.33
2023-04-28T05:16:47.070Z,7.35
2023-04-28T05:17:49.044Z,7.35
2023-04-28T05:18:51.362Z,7.39
2023-04-28T05:19:53.316Z,7.46
2023-04-28T05:20:55.276Z,7.46
2023-04-28T05:21:57.266Z,7.48
2023-04-28T05:22:59.194Z,7.51
2023-04-28T05:24:02.629Z,7.52
2023-04-28T05:25:04.825Z,7.53
2023-04-28T05:26:06.858Z,7.56
2023-04-28T05:27:08.768Z,7.55
2023-04-28T05:28:10.832Z,7.56
2023-04-28T05:29:12.773Z,7.61
2023-04-28T05:30:16.011Z,7.60
2023-04-28T05:31:17.994Z,7.60
2023-04-28T05:32:19.960Z,7.61
2023-04-28T05:33:22.717Z,7.67
2023-04-28T05:34:24.811Z,7.73
2023-04-28T05:35:26.884Z,7.76
2023-04-28T05:36:28.920Z,7.79
2023-04-28T05:37:30.843Z,7.81
2023-04-28T05:38:34.108Z,7.80
2023-04-28T05:39:35.984Z,7.82
2023-04-28T05:40:37.924Z,7.89
2023-04-28T05:41:39.862Z,7.92
2023-04-28T05:42:41.837Z,7.92
2023-04-28T05:43:43.797Z,7.93
2023-04-28T05:44:46.023Z,7.96
2023-04-28T05:45:47.951Z,7.96
2023-04-28T05:46:50.010Z,7.94
2023-04-28T05:47:52.091Z,8.00
2023-04-28T05:48:54.234Z,8.03
2023-04-28T05:49:56.087Z,8.07
2023-04-28T05:50:57.988Z,8.10
2023-04-28T05:51:59.931Z,8.11
2023-04-28T05:53:01.875Z,8.15
2023-04-28T05:54:03.859Z,8.18
2023-04-28T05:55:05.997Z,8.19
2023-04-28T05:56:08.242Z,8.25
2023-04-28T05:57:10.204Z,8.31
2023-04-28T05:58:12.168Z,8.32
2023-04-28T05:59:14.193Z,8.36
2023-04-28T06:00:16.331Z,8.40
2023-04-28T06:01:18.677Z,8.41
2023-04-28T06:02:22.697Z,8.46
2023-04-28T06:03:25.453Z,8.48
2023-04-28T06:04:27.771Z,8.51
2023-04-28T06:05:30.491Z,8.54
2023-04-28T06:06:34.406Z,8.59
2023-04-28T06:07:36.409Z,8.67
2023-04-28T06:08:38.942Z,8.71
2023-04-28T06:09:40.850Z,8.76
2023-04-28T06:10:42.671Z,8.82
2023-04-28T06:11:44.652Z,8.86
2023-04-28T06:12:46.551Z,8.91
2023-04-28T06:13:49.387Z,8.93
2023-04-28T06:14:53.250Z,8.94
2023-04-28T06:15:55.424Z,8.99
2023-04-28T06:16:57.477Z,9.04
2023-04-28T06:17:59.661Z,9.07
2023-04-28T06:19:02.053Z,9.06
2023-04-28T06:20:04.202Z,9.10
2023-04-28T06:21:06.193Z,9.15
2023-04-28T06:22:08.126Z,9.21
2023-04-28T06:23:10.135Z,9.28
2023-04-28T06:24:12.015Z,9.33
2023-04-28T06:25:13.928Z,9.36
2023-04-28T06:26:18.110Z,9.36
2023-04-28T06:27:20.325Z,9.38
2023-04-28T06:28:22.380Z,9.39
2023-04-28T06:29:24.425Z,9.38
2023-04-28T06:30:26.353Z,9.40
2023-04-28T06:31:28.360Z,9.40
2023-04-28T06:32:30.280Z,9.40
2023-04-28T06:33:32.208Z,9.44
2023-04-28T06:34:34.782Z,9.48
2023-04-28T06:35:39.091Z,9.50
2023-04-28T06:36:40.957Z,9.50
2023-04-28T06:37:42.966Z,9.56
2023-04-28T06:38:45.502Z,9.63
2023-04-28T06:39:47.383Z,9.70
2023-04-28T06:40:49.242Z,9.77
2023-04-28T06:41:51.094Z,9.82
2023-04-28T06:42:52.943Z,9.88
2023-04-28T06:43:54.856Z,9.94
2023-04-28T06:44:56.789Z,9.98
2023-04-28T06:45:58.607Z,10.02
2023-04-28T06:47:00.466Z,10.05
2023-04-28T06:48:02.730Z,10.08
2023-04-28T06:49:04.669Z,10.11
2023-04-28T06:50:07.001Z,10.15
2023-04-28T06:51:09.001Z,10.17
2023-04-28T06:52:10.951Z,10.20
2023-04-28T06:53:12.837Z,10.23
2023-04-28T06:54:14.963Z,10.25
2023-04-28T06:55:17.768Z,10.28
2023-04-28T06:56:20.181Z,10.30
2023-04-28T06:57:22.135Z,10.33
2023-04-28T06:58:24.156Z,10.32
2023-04-28T06:59:25.989Z,10.33
2023-04-28T07:00:28.037Z,10.33
2023-04-28T07:01:30.103Z,10.33
2023-04-28T07:02:32.537Z,10.32
2023-04-28T07:03:34.905Z,10.31
2023-04-28T07:04:37.344Z,10.32
2023-04-28T07:05:39.309Z,10.31
2023-04-28T07:06:41.306Z,10.32
2023-04-28T07:07:43.233Z,10.33
2023-04-28T07:08:45.095Z,10.33
2023-04-28T07:09:47.019Z,10.36
2023-04-28T07:10:48.977Z,10.38
2023-04-28T07:11:50.880Z,10.40
2023-04-28T07:12:52.840Z,10.43
2023-04-28T07:13:54.672Z,10.46
2023-04-28T07:14:56.616Z,10.50
2023-04-28T07:15:58.673Z,10.53
2023-04-28T07:17:00.590Z,10.56
2023-04-28T07:18:02.607Z,10.56
2023-04-28T07:19:04.585Z,10.58
2023-04-28T07:20:07.353Z,10.61
2023-04-28T07:21:09.468Z,10.63
2023-04-28T07:22:11.379Z,10.64
2023-04-28T07:23:13.359Z,10.66
2023-04-28T07:24:15.498Z,10.65
2023-04-28T07:25:17.791Z,10.65
2023-04-28T07:26:19.751Z,10.64
2023-04-28T07:27:21.754Z,10.64
2023-04-28T07:28:23.692Z,10.65
2023-04-28T07:29:25.759Z,10.66
2023-04-28T07:30:28.414Z,10.61
2023-04-28T07:31:30.432Z,10.64
2023-04-28T07:32:32.296Z,10.65
2023-04-28T07:33:34.268Z,10.67
2023-04-28T07:34:37.303Z,10.68
2023-04-28T07:35:39.180Z,10.69
2023-04-28T07:36:41.628Z,10.69
2023-04-28T07:37:43.713Z,10.70
2023-04-28T07:38:45.683Z,10.68
2023-04-28T07:39:47.674Z,10.70
2023-04-28T07:41:51.681Z,10.71
2023-04-28T07:42:53.538Z,10.74
2023-04-28T07:43:55.461Z,10.75
2023-04-28T07:44:59.057Z,10.75
2023-04-28T07:46:00.928Z,10.77
2023-04-28T07:47:03.261Z,10.79
2023-04-28T07:48:05.270Z,10.81
2023-04-28T07:49:08.681Z,10.81
2023-04-28T07:50:12.199Z,10.84
2023-04-28T07:51:14.062Z,10.84
2023-04-28T07:52:16.586Z,10.84
2023-04-28T07:53:18.480Z,10.84
2023-04-28T07:54:20.609Z,10.85
2023-04-28T07:55:22.619Z,10.84
2023-04-28T07:56:24.826Z,10.85
2023-04-28T07:57:26.864Z,10.85
2023-04-28T07:58:28.757Z,10.86
2023-04-28T07:59:31.043Z,10.89
2023-04-28T08:00:32.952Z,10.89
2023-04-28T08:01:34.931Z,10.89
2023-04-28T08:02:37.048Z,10.91
2023-04-28T08:03:39.301Z,10.95
2023-04-28T08:04:41.780Z,10.96
2023-04-28T08:05:45.466Z,10.97
2023-04-28T08:06:47.522Z,10.98
2023-04-28T08:07:49.505Z,10.98
2023-04-28T08:08:51.349Z,10.97
2023-04-28T08:09:53.860Z,10.97
2023-04-28T08:10:55.851Z,10.99
2023-04-28T08:11:59.321Z,11.00
2023-04-28T08:13:01.164Z,11.02
2023-04-28T08:14:03.667Z,11.05
2023-04-28T08:15:06.037Z,11.06
2023-04-28T08:16:08.019Z,11.07
2023-04-28T08:17:10.327Z,11.09
2023-04-28T08:18:12.321Z,11.10
2023-04-28T08:19:14.293Z,11.11
2023-04-28T08:20:16.309Z,11.11
2023-04-28T08:21:18.347Z,11.12
2023-04-28T08:22:20.231Z,11.12
2023-04-28T08:23:22.225Z,11.12
2023-04-28T08:24:24.101Z,11.15
2023-04-28T08:25:26.461Z,11.18
2023-04-28T08:26:28.423Z,11.20
2023-04-28T08:27:31.372Z,11.25
2023-04-28T08:28:34.305Z,11.28
2023-04-28T08:29:36.259Z,11.29
2023-04-28T08:30:39.120Z,11.30
2023-04-28T08:31:41.064Z,11.34
2023-04-28T08:32:43.127Z,11.34
2023-04-28T08:33:48.802Z,11.34
2023-04-28T08:34:50.802Z,11.34
2023-04-28T08:35:52.802Z,11.36
2023-04-28T08:36:54.762Z,11.36
2023-04-28T08:37:56.761Z,11.38
2023-04-28T08:39:03.604Z,11.39
2023-04-28T08:40:10.226Z,11.40
2023-04-28T08:41:19.704Z,11.41
2023-04-28T08:42:21.624Z,11.44
2023-04-28T08:43:24.574Z,11.45
2023-04-28T08:44:26.546Z,11.46
2023-04-28T08:45:30.528Z,11.46
2023-04-28T08:46:33.624Z,11.47
2023-04-28T08:47:36.736Z,11.46
2023-04-28T08:48:43.687Z,11.48
2023-04-28T08:49:46.215Z,11.48
2023-04-28T08:50:55.147Z,11.48
2023-04-28T08:51:59.578Z,11.49
2023-04-28T08:53:04.798Z,11.52
2023-04-28T08:55:13.411Z,11.54
2023-04-28T08:56:17.088Z,11.57
2023-04-28T08:57:20.463Z,11.57
2023-04-28T08:58:23.219Z,11.59
2023-04-28T08:59:25.336Z,11.60
2023-04-28T09:00:27.254Z,11.65
2023-04-28T09:01:29.085Z,11.67
2023-04-28T09:02:31.168Z,11.70
2023-04-28T09:03:33.722Z,11.72
2023-04-28T09:04:36.015Z,11.75
2023-04-28T09:05:38.126Z,11.78
2023-04-28T09:06:40.278Z,11.80
2023-04-28T09:07:45.807Z,11.83
2023-04-28T09:08:47.691Z,11.87
2023-04-28T09:09:49.638Z,11.89
2023-04-28T09:11:10.566Z,11.91
2023-04-28T09:12:12.526Z,11.96
2023-04-28T09:13:26.717Z,11.97
2023-04-28T09:14:29.674Z,11.98
2023-04-28T09:15:36.450Z,11.98
2023-04-28T09:16:42.085Z,12.00
2023-04-28T09:17:50.501Z,12.00
2023-04-28T09:18:58.571Z,12.03
2023-04-28T09:20:00.686Z,12.03
2023-04-28T09:21:10.110Z,12.01
2023-04-28T09:22:25.399Z,12.02
2023-04-28T09:23:28.989Z,12.07
2023-04-28T09:24:32.010Z,12.11
2023-04-28T09:25:34.423Z,12.15
2023-04-28T09:26:51.741Z,12.17
2023-04-28T09:27:54.336Z,12.23
2023-04-28T09:29:11.909Z,12.27
2023-04-28T09:30:13.853Z,12.30
2023-04-28T09:31:31.018Z,12.32
2023-04-28T09:32:33.379Z,12.37
2023-04-28T09:33:35.415Z,12.40
2023-04-28T09:34:50.156Z,12.43
2023-04-28T09:35:53.002Z,12.46
2023-04-28T09:36:54.865Z,12.48
2023-04-28T09:37:59.468Z,12.51
2023-04-28T09:39:01.588Z,12.54
2023-04-28T09:40:13.154Z,12.55
2023-04-28T09:41:15.102Z,12.56
2023-04-28T09:42:36.587Z,12.56
2023-04-28T09:43:38.578Z,12.57
2023-04-28T09:44:42.992Z,12.59
2023-04-28T09:45:46.097Z,12.64
2023-04-28T09:46:48.419Z,12.67
2023-04-28T09:47:50.523Z,12.70
2023-04-28T09:49:01.060Z,12.74
2023-04-28T09:50:04.296Z,12.79
2023-04-28T09:51:08.112Z,12.83
2023-04-28T09:52:13.734Z,12.86
2023-04-28T09:53:17.579Z,12.88
2023-04-28T09:54:21.831Z,12.90
2023-04-28T09:55:24.671Z,12.92
2023-04-28T09:56:29.070Z,12.90
2023-04-28T09:57:33.027Z,12.95
2023-04-28T09:58:35.625Z,12.98
2023-04-28T09:59:37.820Z,13.01
2023-04-28T10:00:40.809Z,13.06
2023-04-28T10:01:43.934Z,13.12
2023-04-28T10:02:46.556Z,13.16
2023-04-28T10:03:49.456Z,13.21
2023-04-28T10:04:52.727Z,13.26
2023-04-28T10:05:55.582Z,13.30
2023-04-28T10:06:57.680Z,13.33
2023-04-28T10:08:01.457Z,13.36
2023-04-28T10:09:03.969Z,13.39
2023-04-28T10:10:07.191Z,13.41
2023-04-28T10:11:10.269Z,13.46
2023-04-28T10:12:12.662Z,13.51
2023-04-28T10:13:14.659Z,13.56
2023-04-28T10:14:16.514Z,13.59
2023-04-28T10:15:18.426Z,13.60
2023-04-28T10:16:20.627Z,13.64
2023-04-28T10:17:23.091Z,13.67
2023-04-28T10:18:25.488Z,13.71
2023-04-28T10:19:27.496Z,13.76
2023-04-28T10:20:29.866Z,13.77
2023-04-28T10:21:35.372Z,13.77
2023-04-28T10:22:49.461Z,13.79
2023-04-28T10:24:06.093Z,13.82
2023-04-28T10:25:19.228Z,13.84
2023-04-28T10:26:22.144Z,13.85
2023-04-28T10:27:29.955Z,13.87
2023-04-28T10:28:31.745Z,13.89
2023-04-28T10:29:33.937Z,13.90
2023-04-28T10:30:36.484Z,13.91
2023-04-28T10:31:38.492Z,13.92
2023-04-28T10:32:41.448Z,13.94
2023-04-28T10:33:44.092Z,13.94
2023-04-28T10:34:46.154Z,13.95
2023-04-28T10:35:48.503Z,13.97
2023-04-28T10:36:53.116Z,13.99
2023-04-28T10:38:08.682Z,14.00
2023-04-28T10:39:12.564Z,14.00
2023-04-28T10:40:33.926Z,13.98
2023-04-28T10:41:35.994Z,13.93
2023-04-28T10:42:54.055Z,13.94
2023-04-28T10:43:55.889Z,13.94
2023-04-28T10:44:57.930Z,13.92
2023-04-28T10:46:02.924Z,13.92
2023-04-28T10:47:06.993Z,13.94
2023-04-28T10:48:08.858Z,13.96
2023-04-28T10:49:11.037Z,13.97
2023-04-28T10:50:13.048Z,13.99
2023-04-28T10:51:14.922Z,14.01
2023-04-28T10:52:49.354Z,14.04
2023-04-28T10:53:53.798Z,14.06
2023-04-28T10:55:22.072Z,14.10
2023-04-28T10:56:26.837Z,14.13
2023-04-28T10:57:28.775Z,14.15
2023-04-28T10:58:31.871Z,14.16
2023-04-28T10:59:33.828Z,14.17
2023-04-28T11:00:35.865Z,14.19
2023-04-28T11:01:37.750Z,14.21
2023-04-28T11:02:43.957Z,14.23
2023-04-28T11:03:51.543Z,14.24
2023-04-28T11:05:12.973Z,14.24
2023-04-28T11:06:29.861Z,14.27
2023-04-28T11:07:31.690Z,14.31
2023-04-28T11:08:33.780Z,14.32
2023-04-28T11:09:35.738Z,14.34
2023-04-28T11:10:56.017Z,14.36
2023-04-28T11:12:00.528Z,14.36
2023-04-28T11:13:21.605Z,14.39
2023-04-28T11:14:23.397Z,14.42
2023-04-28T11:15:25.854Z,14.43
2023-04-28T11:16:27.792Z,14.45
2023-04-28T11:17:40.836Z,14.45
2023-04-28T11:18:55.233Z,14.45
2023-04-28T11:19:59.491Z,14.46
2023-04-28T11:21:01.972Z,14.49
2023-04-28T11:22:12.082Z,14.49
2023-04-28T11:23:14.723Z,14.51
2023-04-28T11:24:17.662Z,14.54
2023-04-28T11:25:19.594Z,14.56
2023-04-28T11:26:21.594Z,14.56
2023-04-28T11:27:24.309Z,14.56
2023-04-28T11:28:26.250Z,14.59
2023-04-28T11:29:35.500Z,14.61
2023-04-28T11:30:37.433Z,14.64
2023-04-28T11:31:39.445Z,14.63
2023-04-28T11:32:42.246Z,14.64
2023-04-28T11:33:45.150Z,14.66
2023-04-28T11:34:52.086Z,14.67
2023-04-28T11:35:53.978Z,14.67
2023-04-28T11:36:56.421Z,14.70
2023-04-28T11:38:02.747Z,14.68
2023-04-28T11:39:07.708Z,14.69
2023-04-28T11:40:13.377Z,14.67
2023-04-28T11:41:15.422Z,14.67
2023-04-28T11:42:17.663Z,14.68
2023-04-28T11:43:36.524Z,14.70
2023-04-28T11:44:53.171Z,14.68
2023-04-28T11:45:55.088Z,14.69
2023-04-28T11:47:01.063Z,14.71
2023-04-28T11:48:20.774Z,14.71
2023-04-28T11:49:24.930Z,14.72
2023-04-28T11:50:36.401Z,14.73
2023-04-28T11:51:39.198Z,14.73
2023-04-28T11:52:52.479Z,14.72
2023-04-28T11:53:55.728Z,14.70
2023-04-28T11:54:59.514Z,14.69
2023-04-28T11:56:10.321Z,14.67
2023-04-28T11:57:19.496Z,14.71
2023-04-28T11:58:25.482Z,14.68
2023-04-28T11:59:28.994Z,14.70
2023-04-28T12:00:30.816Z,14.69
2023-04-28T12:01:33.424Z,14.70
2023-04-28T12:02:37.237Z,14.67
2023-04-28T12:03:48.877Z,14.66
2023-04-28T12:04:51.037Z,14.67
2023-04-28T12:05:53.016Z,14.68
2023-04-28T12:07:07.313Z,14.68
2023-04-28T12:08:09.258Z,14.70
2023-04-28T12:09:18.150Z,14.68
2023-04-28T12:10:20.391Z,14.68
2023-04-28T12:11:22.830Z,14.68
2023-04-28T12:12:40.012Z,14.69
2023-04-28T12:14:06.993Z,14.72
2023-04-28T12:15:10.096Z,14.72
2023-04-28T12:16:12.034Z,14.72
2023-04-28T12:17:23.516Z,14.72
2023-04-28T12:18:25.421Z,14.74
2023-04-28T12:19:27.601Z,14.74
2023-04-28T12:20:36.951Z,14.74
2023-04-28T12:21:40.210Z,14.74
2023-04-28T12:22:47.029Z,14.74
2023-04-28T12:23:48.907Z,14.74
2023-04-28T12:25:08.334Z,14.72
2023-04-28T12:26:10.817Z,14.67
2023-04-28T12:27:22.049Z,14.63
2023-04-28T12:28:24.170Z,14.59
2023-04-28T12:29:36.337Z,14.56
2023-04-28T12:30:44.244Z,14.51
2023-04-28T12:31:50.799Z,14.48
2023-04-28T12:32:54.154Z,14.47
2023-04-28T12:33:56.139Z,14.47
2023-04-28T12:34:58.300Z,14.48
2023-04-28T12:36:00.404Z,14.47
2023-04-28T12:37:06.041Z,14.46
2023-04-28T12:38:11.739Z,14.49
2023-04-28T12:39:14.284Z,14.48
2023-04-28T12:40:16.229Z,14.49
2023-04-28T12:41:18.100Z,14.47
2023-04-28T12:42:20.042Z,14.45
2023-04-28T12:43:23.683Z,14.47
2023-04-28T12:44:26.228Z,14.43
2023-04-28T12:45:28.180Z,14.41
2023-04-28T12:46:31.719Z,14.39
2023-04-28T12:47:33.877Z,14.40
2023-04-28T12:48:35.839Z,14.39
2023-04-28T12:49:38.616Z,14.40
2023-04-28T12:50:40.527Z,14.41
2023-04-28T12:51:42.480Z,14.41
2023-04-28T12:52:44.341Z,14.43
2023-04-28T12:53:46.171Z,14.44
2023-04-28T12:54:48.782Z,14.41
2023-04-28T12:55:50.660Z,14.42
2023-04-28T12:56:52.854Z,14.43
2023-04-28T12:57:55.334Z,14.41
2023-04-28T12:58:57.374Z,14.41
2023-04-28T12:59:59.213Z,14.39
2023-04-28T13:01:01.052Z,14.38
2023-04-28T13:02:03.054Z,14.38
2023-04-28T13:03:05.440Z,14.36
2023-04-28T13:04:07.904Z,14.35
2023-04-28T13:05:10.909Z,14.32
2023-04-28T13:06:12.938Z,14.28
2023-04-28T13:07:18.118Z,14.27
2023-04-28T13:08:20.554Z,14.26
2023-04-28T13:09:22.421Z,14.26
2023-04-28T13:10:24.311Z,14.23
2023-04-28T13:11:28.334Z,14.22
2023-04-28T13:12:30.176Z,14.22
2023-04-28T13:13:32.277Z,14.24
2023-04-28T13:14:34.191Z,14.21
2023-04-28T13:15:38.780Z,14.18
2023-04-28T13:16:40.923Z,14.14
2023-04-28T13:17:42.856Z,14.10
2023-04-28T13:18:44.796Z,14.06
2023-04-28T13:19:47.598Z,14.06
2023-04-28T13:20:49.960Z,14.06
2023-04-28T13:21:52.451Z,14.06
2023-04-28T13:22:54.406Z,14.06
2023-04-28T13:23:56.969Z,14.05
2023-04-28T13:24:58.797Z,14.01
2023-04-28T13:26:00.864Z,13.96
2023-04-28T13:27:04.486Z,13.92
2023-04-28T13:28:06.877Z,13.91
2023-04-28T13:29:09.767Z,13.88
2023-04-28T13:30:12.001Z,13.84
2023-04-28T13:31:14.434Z,13.84
2023-04-28T13:32:16.609Z,13.85
2023-04-28T13:33:18.514Z,13.79
2023-04-28T13:34:20.692Z,13.67
2023-04-28T13:35:22.644Z,13.67
2023-04-28T13:36:24.757Z,13.66
2023-04-28T13:37:26.746Z,13.63
2023-04-28T13:38:28.667Z,13.63
2023-04-28T13:39:30.599Z,13.65
2023-04-28T13:40:32.688Z,13.66
2023-04-28T13:41:34.542Z,13.67
2023-04-28T13:42:36.433Z,13.69
2023-04-28T13:43:38.476Z,13.68
2023-04-28T13:44:40.392Z,13.69
2023-04-28T13:45:42.248Z,13.70
2023-04-28T13:46:44.218Z,13.73
2023-04-28T13:47:46.378Z,13.75
2023-04-28T13:48:48.338Z,13.73
2023-04-28T13:49:50.832Z,13.73